EFSI/SJY METAR and TAF weather

Enter ICAO airport designator
Station Type Date Time Source
EFSI METAR 2018/12/13 16:20 UTC NOAA

EFSI 131620Z AUTO 21001KT 9999 OVC007 M03/M05 Q1034


Station Type Date Time Source
EFSI Decoded METAR 2018/12/13 16:20 UTC NOAA

Seinajoki-Ilmajok, Finland (EFSI) 62-41-37N 022-49-55E
Dec 13, 2018 - 11:20 AM EST / 2018.12.13 1620 UTC
Wind: from the SSW (210 degrees) at 1 MPH (1 KT):0
Visibility: greater than 7 mile(s):0
Sky conditions: overcast
Temperature: 26 F (-3 C)
Dew Point: 23 F (-5 C)
Relative Humidity: 86%
Pressure (altimeter): 30.53 in. Hg (1034 hPa)
ob: EFSI 131620Z AUTO 21001KT 9999 OVC007 M03/M05 Q1034
cycle: 16

Station Type Date Time Source
EFSI TAF 2012/03/06 09:42 UTC NOAA

TAF EFSI 060830Z 0609/0621 12003KT CAVOK


Example: see airport list